Lackey, Mississippi
Current Conditions -  °F | °C
As of 11:55 PM on Saturday 22 Nov 2014 (Local Time) from KM40 Reporting Station
Overcast Overcast  
Wind Chill: 63°   Ceiling: 2000
Heat Index: 63°   Visibility: 10mi
Dew Point: 46°   Wind: 13mph
Humidity: 55%   Direction: 150°SSE
Pressure: 30.01"   Gusts: 17mph
Location:  33.8251°N, 88.6185°W
Report Text: KM40 230555Z AUTO 15011G15KT 10SM OVC020 17/08 A3001 RMK AO2
Loading
Personal Weather Stations






























Interactive Weather Map New forecast layout! Learn more

10-Day Weather Forecast

Advertisements
Track Severe Weather on mobile